COA4422 KSBP-KSAN
Flight info
| Callsign | COA4422 |
|---|---|
| Flight time | N/A |
| Altitude | FL250 |
| Route | CREPE3 MQO RZS V25 LAX SHAMU1 |
| Aircraft | B738 |
Departure
| Time | 2026-04-25 21:54 |
|---|---|
| Airport | San Luis County Regional Airport (KSBP) |
Arrival
| Time | N/A |
|---|---|
| Airport | San Diego International Airport (KSAN) |
| Time | Latitude | Longitude | Altitude | Speed | Heading |
|---|---|---|---|---|---|
| 2026-04-25 21:47 | 35.23300 | -120.63236 | 222 ft | 0 kts | 222° |
| 2026-04-25 21:51 | 35.23300 | -120.63237 | 222 ft | 0 kts | 222° |
| 2026-04-25 21:51 | 35.23295 | -120.63242 | 222 ft | 2 kts | 222° |
| 2026-04-25 21:51 | 35.23289 | -120.63249 | 222 ft | 1 kts | 223° |
| 2026-04-25 21:51 | 35.23287 | -120.63252 | 222 ft | 0 kts | 223° |
| 2026-04-25 21:52 | 35.23286 | -120.63253 | 222 ft | 0 kts | 223° |
| 2026-04-25 21:53 | 35.23282 | -120.63258 | 222 ft | 4 kts | 225° |
| 2026-04-25 21:53 | 35.23274 | -120.63302 | 222 ft | 1 kts | 292° |
| 2026-04-25 21:53 | 35.23294 | -120.63351 | 222 ft | 33 kts | 302° |
| 2026-04-25 21:53 | 35.23577 | -120.63858 | 222 ft | 107 kts | 306° |
| 2026-04-25 21:54 | 35.24094 | -120.64750 | 268 ft | 137 kts | 305° |
| 2026-04-25 21:54 | 35.24711 | -120.65836 | 830 ft | 172 kts | 302° |
| 2026-04-25 21:54 | 35.25342 | -120.67041 | 1762 ft | 174 kts | 304° |
| 2026-04-25 21:54 | 35.26026 | -120.68244 | 2654 ft | 181 kts | 305° |
| 2026-04-25 21:55 | 35.26478 | -120.69675 | 3408 ft | 195 kts | 270° |
| 2026-04-25 21:55 | 35.26083 | -120.71267 | 4279 ft | 208 kts | 234° |
| 2026-04-25 21:55 | 35.24976 | -120.72369 | 5290 ft | 215 kts | 206° |
| 2026-04-25 21:55 | 35.23613 | -120.72845 | 6571 ft | 214 kts | 189° |
| 2026-04-25 21:56 | 35.21931 | -120.72954 | 6669 ft | 271 kts | 172° |
| 2026-04-25 21:56 | 35.20734 | -120.72423 | 7305 ft | 284 kts | 148° |
| 2026-04-25 21:56 | 35.19201 | -120.69934 | 9049 ft | 290 kts | 109° |
| 2026-04-25 21:56 | 35.18775 | -120.67553 | 10254 ft | 294 kts | 102° |
| 2026-04-25 21:57 | 35.18396 | -120.65035 | 10920 ft | 316 kts | 102° |
| 2026-04-25 21:57 | 35.17971 | -120.62309 | 11615 ft | 339 kts | 102° |
| 2026-04-25 21:57 | 35.17524 | -120.59391 | 12188 ft | 365 kts | 102° |
| 2026-04-25 21:57 | 35.17049 | -120.56263 | 12865 ft | 383 kts | 102° |
| 2026-04-25 21:58 | 35.16562 | -120.53033 | 13704 ft | 395 kts | 103° |
| 2026-04-25 21:58 | 35.16062 | -120.49726 | 14596 ft | 403 kts | 103° |
| 2026-04-25 21:58 | 35.15549 | -120.46347 | 15453 ft | 411 kts | 103° |
| 2026-04-25 21:58 | 35.15028 | -120.42921 | 16327 ft | 416 kts | 103° |
| 2026-04-25 21:59 | 35.14495 | -120.39432 | 17081 ft | 424 kts | 104° |
| 2026-04-25 21:59 | 35.13949 | -120.35864 | 17866 ft | 429 kts | 104° |
| 2026-04-25 21:59 | 35.13399 | -120.32280 | 18519 ft | 437 kts | 105° |
| 2026-04-25 22:00 | 35.11948 | -120.24962 | 19480 ft | 450 kts | 116° |
| 2026-04-25 22:00 | 35.10458 | -120.21634 | 19849 ft | 451 kts | 132° |
| 2026-04-25 22:00 | 35.08492 | -120.18724 | 20691 ft | 446 kts | 135° |
| 2026-04-25 22:00 | 35.06518 | -120.15713 | 20960 ft | 459 kts | 133° |
| 2026-04-25 22:01 | 35.04588 | -120.12662 | 21755 ft | 457 kts | 133° |
| 2026-04-25 22:01 | 35.02628 | -120.09584 | 22039 ft | 465 kts | 133° |
| 2026-04-25 22:01 | 35.00673 | -120.06527 | 23060 ft | 456 kts | 133° |
| 2026-04-25 22:01 | 34.99366 | -120.04486 | 23334 ft | 461 kts | 134° |
| 2026-04-25 22:02 | 34.96755 | -120.00421 | 24315 ft | 460 kts | 134° |
| 2026-04-25 22:02 | 34.94756 | -119.97318 | 24665 ft | 468 kts | 134° |
| 2026-04-25 22:02 | 34.92766 | -119.94234 | 24952 ft | 462 kts | 134° |
| 2026-04-25 22:02 | 34.90794 | -119.91174 | 24944 ft | 460 kts | 134° |
| 2026-04-25 22:03 | 34.88828 | -119.88129 | 24948 ft | 459 kts | 134° |
| 2026-04-25 22:03 | 34.86864 | -119.85093 | 24948 ft | 457 kts | 134° |
| 2026-04-25 22:03 | 34.84910 | -119.82074 | 24950 ft | 456 kts | 134° |
| 2026-04-25 22:03 | 34.82958 | -119.79061 | 24953 ft | 455 kts | 134° |
| 2026-04-25 22:04 | 34.80997 | -119.76034 | 24958 ft | 454 kts | 134° |
| 2026-04-25 22:04 | 34.79051 | -119.73034 | 24963 ft | 453 kts | 134° |
| 2026-04-25 22:04 | 34.77112 | -119.70049 | 24967 ft | 452 kts | 134° |
| 2026-04-25 22:04 | 34.75173 | -119.67064 | 24971 ft | 451 kts | 134° |
| 2026-04-25 22:05 | 34.73236 | -119.64085 | 24976 ft | 451 kts | 134° |
| 2026-04-25 22:05 | 34.71303 | -119.61114 | 24979 ft | 450 kts | 134° |
| 2026-04-25 22:05 | 34.69367 | -119.58142 | 24981 ft | 450 kts | 134° |
| 2026-04-25 22:05 | 34.67420 | -119.55157 | 24982 ft | 450 kts | 134° |
| 2026-04-25 22:06 | 34.65487 | -119.52195 | 24982 ft | 450 kts | 134° |
| 2026-04-25 22:06 | 34.63552 | -119.49233 | 24982 ft | 449 kts | 134° |
| 2026-04-25 22:06 | 34.61617 | -119.46272 | 24982 ft | 449 kts | 134° |
| 2026-04-25 22:06 | 34.59687 | -119.43320 | 24982 ft | 449 kts | 134° |
| 2026-04-25 22:07 | 34.57750 | -119.40361 | 24982 ft | 449 kts | 134° |
| 2026-04-25 22:07 | 34.56452 | -119.38379 | 24982 ft | 449 kts | 134° |
| 2026-04-25 22:07 | 34.53867 | -119.34436 | 24981 ft | 449 kts | 135° |
| 2026-04-25 22:07 | 34.51934 | -119.31488 | 24982 ft | 448 kts | 135° |
| 2026-04-25 22:08 | 34.50001 | -119.28542 | 24981 ft | 448 kts | 135° |
| 2026-04-25 22:08 | 34.48071 | -119.25605 | 24981 ft | 447 kts | 135° |
| 2026-04-25 22:08 | 34.46141 | -119.22670 | 24982 ft | 447 kts | 135° |
| 2026-04-25 22:08 | 34.44215 | -119.19744 | 24982 ft | 447 kts | 135° |
| 2026-04-25 22:09 | 34.42286 | -119.16817 | 24982 ft | 447 kts | 135° |
| 2026-04-25 22:09 | 34.40343 | -119.13871 | 24982 ft | 446 kts | 135° |
| 2026-04-25 22:09 | 34.38417 | -119.10951 | 24982 ft | 446 kts | 135° |
| 2026-04-25 22:09 | 34.36488 | -119.08029 | 24981 ft | 446 kts | 135° |
| 2026-04-25 22:10 | 34.34559 | -119.05111 | 24981 ft | 446 kts | 135° |
| 2026-04-25 22:10 | 34.32629 | -119.02195 | 24982 ft | 446 kts | 135° |
| 2026-04-25 22:10 | 34.30699 | -118.99280 | 24979 ft | 446 kts | 135° |
| 2026-04-25 22:10 | 34.28768 | -118.96366 | 24976 ft | 446 kts | 135° |
| 2026-04-25 22:11 | 34.26826 | -118.93437 | 24972 ft | 446 kts | 135° |
| 2026-04-25 22:11 | 34.24894 | -118.90526 | 24969 ft | 446 kts | 135° |
| 2026-04-25 22:11 | 34.22954 | -118.87607 | 24966 ft | 446 kts | 135° |
| 2026-04-25 22:11 | 34.21016 | -118.84692 | 24964 ft | 446 kts | 135° |
| 2026-04-25 22:12 | 34.19052 | -118.81744 | 24972 ft | 458 kts | 135° |
| 2026-04-25 22:12 | 34.17024 | -118.78716 | 24967 ft | 475 kts | 134° |
| 2026-04-25 22:12 | 34.14914 | -118.75561 | 24963 ft | 489 kts | 134° |
| 2026-04-25 22:12 | 34.13479 | -118.73412 | 24963 ft | 493 kts | 134° |
| 2026-04-25 22:13 | 34.10617 | -118.69109 | 24964 ft | 493 kts | 134° |
| 2026-04-25 22:13 | 34.08468 | -118.65883 | 24969 ft | 493 kts | 134° |
| 2026-04-25 22:13 | 34.06327 | -118.62678 | 24973 ft | 493 kts | 134° |
| 2026-04-25 22:13 | 34.04176 | -118.59461 | 24973 ft | 493 kts | 134° |
| 2026-04-25 22:14 | 34.02024 | -118.56246 | 24973 ft | 493 kts | 134° |
| 2026-04-25 22:14 | 33.99869 | -118.53031 | 24973 ft | 494 kts | 134° |
| 2026-04-25 22:14 | 33.97706 | -118.49808 | 24973 ft | 495 kts | 134° |
| 2026-04-25 22:14 | 33.95531 | -118.46573 | 24973 ft | 495 kts | 134° |
| 2026-04-25 22:15 | 33.93367 | -118.43357 | 24973 ft | 495 kts | 134° |
| 2026-04-25 22:15 | 33.91144 | -118.40267 | 24972 ft | 492 kts | 137° |
| 2026-04-25 22:15 | 33.88782 | -118.37272 | 24974 ft | 491 kts | 139° |
| 2026-04-25 22:16 | 33.84082 | -118.31329 | 24972 ft | 491 kts | 139° |
| 2026-04-25 22:16 | 33.81743 | -118.28346 | 24973 ft | 491 kts | 139° |
| 2026-04-25 22:16 | 33.79393 | -118.25351 | 24973 ft | 491 kts | 139° |
| 2026-04-25 22:16 | 33.77057 | -118.22374 | 24973 ft | 492 kts | 139° |
| 2026-04-25 22:17 | 33.74720 | -118.19394 | 24972 ft | 492 kts | 139° |
| 2026-04-25 22:17 | 33.72388 | -118.16421 | 24972 ft | 492 kts | 139° |
| 2026-04-25 22:17 | 33.70052 | -118.13444 | 24973 ft | 492 kts | 139° |
| 2026-04-25 22:17 | 33.67732 | -118.10430 | 24972 ft | 492 kts | 137° |
| 2026-04-25 22:18 | 33.65464 | -118.07390 | 24968 ft | 488 kts | 137° |
| 2026-04-25 22:18 | 33.63241 | -118.04381 | 24965 ft | 470 kts | 137° |
| 2026-04-25 22:18 | 33.61137 | -118.01527 | 24965 ft | 446 kts | 137° |
| 2026-04-25 22:18 | 33.59117 | -117.98796 | 24971 ft | 439 kts | 137° |
| 2026-04-25 22:19 | 33.57058 | -117.96039 | 24981 ft | 454 kts | 137° |
| 2026-04-25 22:19 | 33.54914 | -117.93179 | 24974 ft | 471 kts | 138° |
| 2026-04-25 22:19 | 33.52601 | -117.90347 | 24964 ft | 484 kts | 141° |
| 2026-04-25 22:19 | 33.50157 | -117.87568 | 24961 ft | 488 kts | 142° |
| 2026-04-25 22:20 | 33.47692 | -117.84753 | 24970 ft | 486 kts | 141° |
| 2026-04-25 22:20 | 33.45277 | -117.81957 | 24967 ft | 485 kts | 141° |
| 2026-04-25 22:20 | 33.42851 | -117.79186 | 24976 ft | 483 kts | 143° |
| 2026-04-25 22:20 | 33.40365 | -117.76528 | 24982 ft | 482 kts | 144° |
| 2026-04-25 22:21 | 33.37859 | -117.73894 | 24983 ft | 482 kts | 144° |
| 2026-04-25 22:21 | 33.35357 | -117.71249 | 24982 ft | 482 kts | 144° |
| 2026-04-25 22:21 | 33.32861 | -117.68599 | 24959 ft | 482 kts | 144° |
| 2026-04-25 22:21 | 33.30344 | -117.65927 | 24414 ft | 486 kts | 144° |
| 2026-04-25 22:22 | 33.27859 | -117.63286 | 23658 ft | 476 kts | 144° |
| 2026-04-25 22:22 | 33.25427 | -117.60690 | 22856 ft | 467 kts | 143° |
| 2026-04-25 22:22 | 33.23046 | -117.58119 | 21859 ft | 463 kts | 144° |
| 2026-04-25 22:22 | 33.20678 | -117.55624 | 20860 ft | 453 kts | 144° |
| 2026-04-25 22:23 | 33.18352 | -117.53193 | 19862 ft | 445 kts | 144° |
| 2026-04-25 22:23 | 33.16076 | -117.50807 | 19118 ft | 431 kts | 144° |
| 2026-04-25 22:23 | 33.13880 | -117.48532 | 18494 ft | 415 kts | 147° |
| 2026-04-25 22:23 | 33.11592 | -117.46509 | 17861 ft | 398 kts | 151° |
| 2026-04-25 22:24 | 33.09352 | -117.44678 | 17236 ft | 389 kts | 152° |
| 2026-04-25 22:24 | 33.07156 | -117.42866 | 16618 ft | 385 kts | 151° |
| 2026-04-25 22:24 | 33.04979 | -117.41061 | 15995 ft | 383 kts | 151° |
| 2026-04-25 22:24 | 33.02808 | -117.39262 | 15371 ft | 381 kts | 151° |
| 2026-04-25 22:25 | 33.00662 | -117.37480 | 14997 ft | 374 kts | 150° |
| 2026-04-25 22:25 | 32.98532 | -117.35694 | 14992 ft | 372 kts | 150° |
| 2026-04-25 22:25 | 32.96478 | -117.33956 | 14994 ft | 352 kts | 151° |
| 2026-04-25 22:25 | 32.94559 | -117.32332 | 15003 ft | 330 kts | 152° |
| 2026-04-25 22:26 | 32.92702 | -117.30778 | 15012 ft | 329 kts | 152° |
| 2026-04-25 22:26 | 32.90828 | -117.29224 | 15012 ft | 331 kts | 152° |
| 2026-04-25 22:26 | 32.88931 | -117.27650 | 15011 ft | 331 kts | 152° |
| 2026-04-25 22:26 | 32.87049 | -117.26087 | 15011 ft | 331 kts | 152° |
| 2026-04-25 22:27 | 32.85174 | -117.24529 | 15010 ft | 330 kts | 152° |
| 2026-04-25 22:27 | 32.83309 | -117.23022 | 15002 ft | 317 kts | 156° |
| 2026-04-25 22:27 | 32.81538 | -117.21502 | 14981 ft | 322 kts | 141° |
| 2026-04-25 22:27 | 32.80275 | -117.19218 | 14433 ft | 345 kts | 116° |
| 2026-04-25 22:28 | 32.79895 | -117.16358 | 13439 ft | 365 kts | 89° |
| 2026-04-25 22:28 | 32.80227 | -117.13313 | 12123 ft | 384 kts | 81° |
| 2026-04-25 22:28 | 32.80694 | -117.10156 | 10628 ft | 400 kts | 81° |
| 2026-04-25 22:28 | 32.81139 | -117.06922 | 9607 ft | 396 kts | 82° |
| 2026-04-25 22:29 | 32.81561 | -117.03771 | 9085 ft | 379 kts | 81° |
| 2026-04-25 22:29 | 32.81962 | -117.00755 | 8574 ft | 364 kts | 81° |
| 2026-04-25 22:29 | 32.82344 | -116.97858 | 8069 ft | 350 kts | 81° |
| 2026-04-25 22:30 | 32.83098 | -116.92183 | 6375 ft | 349 kts | 81° |
| 2026-04-25 22:30 | 32.83469 | -116.89421 | 6111 ft | 329 kts | 81° |
| 2026-04-25 22:30 | 32.83821 | -116.86833 | 5978 ft | 308 kts | 81° |
| 2026-04-25 22:30 | 32.84044 | -116.85199 | 5891 ft | 297 kts | 82° |
| 2026-04-25 22:31 | 32.83757 | -116.82142 | 5730 ft | 268 kts | 119° |